Indianapolis, Indiana
Traffic Map
Current Weather Conditions
Indianapolis, Indiana
Scattered Clouds
Scattered Clouds
38°
Feels Like: 32°
Wind Chill: 32° Ceiling: Unl
Heat Index: 38° Visibility: 10mi
Dew Point: 35° Wind: 8mph
Humidity: 89% Direction: 260° (W)
Pressure: 29.61in Gusts: 0mph
Raw Report DataKIND 230354Z 26007KT 10SM FEW050 SCT140 03/02 A2961 RMK AO2 SLP029 T00330017
Traffic Incident Summary
Active as of:
Severity:
Category:
InformationThere was an issue retrieving the traffic information for this location. Please try a different location or try again shortly.
Advertisements